Time;durP1;ratioP1;P1;durP2;ratioP2;P2;SDS_P1;SDS_P2;PMS_P1;PMS_P2;Temp;Humidity;BMP_temperature;BMP_pressure;BME280_temperature;BME280_humidity;BME280_pressure;Samples;Min_cycle;Max_cycle;Signal;HPM_P1;HPM_P2
2022/09/08 00:00:26;;;;;;;5.63;3.63;;;21.20;96.20;;;;;;5071761;28;20063;-81
2022/09/08 00:02:52;;;;;;;6.90;4.28;;;21.20;96.00;;;;;;5071457;28;20458;-79
2022/09/08 00:05:22;;;;;;;5.13;3.70;;;21.20;96.20;;;;;;5072014;28;20095;-81
2022/09/08 00:07:50;;;;;;;5.57;3.42;;;21.20;96.10;;;;;;5071866;28;20488;-81
2022/09/08 00:10:17;;;;;;;6.15;3.80;;;21.20;96.00;;;;;;5071768;28;20021;-81
2022/09/08 00:12:43;;;;;;;5.03;3.85;;;21.20;96.10;;;;;;5071677;28;20116;-80
2022/09/08 00:15:11;;;;;;;5.45;3.47;;;21.10;96.30;;;;;;5070987;28;20090;-80
2022/09/08 00:17:37;;;;;;;5.47;3.80;;;21.20;96.20;;;;;;5071757;28;20111;-79
2022/09/08 00:20:04;;;;;;;5.75;4.13;;;21.20;96.50;;;;;;5071605;28;20040;-79
2022/09/08 00:22:30;;;;;;;5.82;3.85;;;21.20;96.40;;;;;;5071406;28;20056;-80
2022/09/08 00:24:55;;;;;;;4.43;3.97;;;21.20;96.40;;;;;;5072432;28;20453;-80
2022/09/08 00:27:21;;;;;;;5.22;4.00;;;21.10;96.30;;;;;;5074054;28;20025;-80
2022/09/08 00:29:46;;;;;;;7.50;4.22;;;21.10;96.60;;;;;;5075487;28;20484;-80
2022/09/08 00:32:12;;;;;;;6.63;3.97;;;21.10;96.60;;;;;;5074991;28;20047;-80
2022/09/08 00:34:37;;;;;;;6.20;3.80;;;21.10;96.60;;;;;;5075684;28;20349;-80
2022/09/08 00:37:03;;;;;;;5.93;3.60;;;21.10;96.70;;;;;;5074137;28;20446;-80
2022/09/08 00:39:29;;;;;;;5.72;3.97;;;21.00;96.90;;;;;;5075454;28;20090;-81
2022/09/08 00:41:55;;;;;;;5.53;4.05;;;21.00;97.00;;;;;;5075050;28;20122;-80
2022/09/08 00:44:41;;;;;;;6.20;4.22;;;21.00;97.20;;;;;;5057238;28;20119;-80
2022/09/08 00:47:20;;;;;;;4.90;3.80;;;21.00;97.00;;;;;;5074330;28;20398;-80
2022/09/08 00:49:50;;;;;;;4.45;4.05;;;20.90;97.10;;;;;;5075461;28;20028;-81
2022/09/08 00:52:15;;;;;;;8.82;4.40;;;20.90;97.50;;;;;;5075602;28;20027;-81
2022/09/08 00:54:43;;;;;;;9.18;4.22;;;20.90;97.60;;;;;;5077317;28;20028;-80
2022/09/08 00:57:09;;;;;;;4.60;4.05;;;20.90;97.50;;;;;;5095321;28;20024;-82
2022/09/08 00:59:36;;;;;;;7.05;4.22;;;20.90;98.10;;;;;;5094595;28;20028;-81
2022/09/08 01:02:15;;;;;;;6.45;4.40;;;20.90;98.00;;;;;;5087915;28;20083;-81
2022/09/08 01:04:41;;;;;;;5.18;4.00;;;20.90;97.90;;;;;;5075693;28;20028;-80
2022/09/08 01:13:07;;;;;;;7.50;4.32;;;20.80;98.40;;;;;;5075271;28;20060;-81
2022/09/08 01:15:32;;;;;;;6.40;4.40;;;20.70;98.80;;;;;;5078416;28;20414;-79
2022/09/08 01:17:58;;;;;;;6.60;4.45;;;20.70;98.80;;;;;;5074717;28;20127;-79
2022/09/08 01:20:38;;;;;;;4.72;4.22;;;20.70;99.10;;;;;;5075296;28;20025;-80
2022/09/08 01:23:38;;;;;;;8.18;4.43;;;20.70;99.10;;;;;;5074860;28;20132;-80
2022/09/08 01:26:33;;;;;;;5.15;4.30;;;20.70;99.10;;;;;;5075320;28;20025;-80
2022/09/08 01:29:01;;;;;;;5.40;4.28;;;20.60;99.00;;;;;;5003286;28;20089;-80
2022/09/08 01:31:29;;;;;;;7.20;4.95;;;20.60;99.20;;;;;;5076110;28;20044;-79
2022/09/08 01:33:55;;;;;;;5.00;4.28;;;20.60;99.20;;;;;;5075900;28;20029;-81
2022/09/08 01:36:21;;;;;;;6.03;4.40;;;20.60;99.50;;;;;;5075346;28;20024;-79
2022/09/08 01:38:46;;;;;;;7.20;4.28;;;20.50;99.70;;;;;;5075376;28;20042;-81
2022/09/08 01:41:13;;;;;;;7.65;4.80;;;20.50;99.80;;;;;;5076198;28;20058;-79
2022/09/08 01:43:39;;;;;;;11.30;4.43;;;20.50;99.90;;;;;;5075324;28;20032;-81
2022/09/08 01:46:05;;;;;;;5.30;4.75;;;20.40;99.90;;;;;;5075316;28;20029;-79
2022/09/08 01:48:32;;;;;;;7.38;4.70;;;20.40;99.90;;;;;;5076885;28;20025;-79
2022/09/08 01:51:00;;;;;;;7.45;5.47;;;20.30;99.90;;;;;;5075654;28;20028;-79
2022/09/08 01:53:26;;;;;;;5.45;4.78;;;20.30;99.90;;;;;;5077707;28;20032;-79
2022/09/08 01:55:52;;;;;;;5.80;4.28;;;20.20;99.90;;;;;;5083855;28;20411;-80
2022/09/08 01:58:17;;;;;;;5.63;4.45;;;20.20;99.90;;;;;;5096984;28;20246;-80
2022/09/08 02:00:43;;;;;;;6.13;4.13;;;20.30;99.90;;;;;;5083627;28;20031;-80
2022/09/08 02:03:11;;;;;;;9.20;5.47;;;20.30;99.90;;;;;;5078038;28;20373;-80
2022/09/08 02:05:38;;;;;;;5.82;4.35;;;20.30;99.90;;;;;;5077176;28;20358;-80
2022/09/08 02:08:05;;;;;;;6.18;4.90;;;20.30;99.90;;;;;;5055231;28;20021;-80
2022/09/08 02:10:30;;;;;;;6.97;4.50;;;20.30;99.90;;;;;;5073441;28;20036;-81
2022/09/08 02:12:56;;;;;;;5.93;4.57;;;20.20;99.90;;;;;;5073092;28;20031;-80
2022/09/08 02:15:22;;;;;;;4.95;4.38;;;20.20;99.90;;;;;;5072874;28;20086;-80
2022/09/08 02:17:47;;;;;;;9.02;5.00;;;20.20;99.90;;;;;;5073249;28;20036;-80
2022/09/08 02:20:15;;;;;;;8.15;4.50;;;20.20;99.90;;;;;;5072705;28;20094;-81
2022/09/08 02:22:41;;;;;;;7.63;4.97;;;20.20;99.90;;;;;;5055108;28;20028;-81
2022/09/08 02:25:07;;;;;;;7.35;4.50;;;20.20;99.90;;;;;;5072913;28;20016;-80
2022/09/08 02:27:32;;;;;;;6.60;4.97;;;20.20;99.90;;;;;;5073533;28;20032;-80
2022/09/08 02:29:58;;;;;;;7.32;5.35;;;20.20;99.90;;;;;;5072971;28;20379;-79
2022/09/08 02:32:24;;;;;;;8.07;4.70;;;20.20;99.90;;;;;;5072893;28;20465;-81
2022/09/08 02:34:50;;;;;;;6.95;4.90;;;20.20;99.90;;;;;;5073271;28;20461;-81
2022/09/08 02:37:16;;;;;;;6.80;4.43;;;20.20;99.90;;;;;;5054412;28;20028;-81
2022/09/08 02:39:41;;;;;;;6.15;5.45;;;20.20;99.90;;;;;;5072431;28;20115;-80
2022/09/08 02:42:10;;;;;;;5.57;5.00;;;20.20;99.90;;;;;;5072393;28;20104;-83
2022/09/08 02:44:36;;;;;;;6.97;5.43;;;20.20;99.90;;;;;;5073157;28;20021;-81
2022/09/08 02:47:01;;;;;;;7.32;5.72;;;20.20;99.90;;;;;;5072020;28;20034;-76
2022/09/08 02:49:27;;;;;;;6.50;5.70;;;20.20;99.90;;;;;;5071763;28;20020;-80
2022/09/08 02:51:53;;;;;;;6.95;5.47;;;20.20;99.90;;;;;;5070923;28;20476;-81
2022/09/08 02:54:19;;;;;;;5.88;5.05;;;20.20;99.90;;;;;;5071672;28;20028;-81
2022/09/08 02:56:44;;;;;;;7.18;5.60;;;20.20;99.90;;;;;;5072558;28;20037;-80
2022/09/08 02:59:10;;;;;;;6.85;5.53;;;20.20;99.90;;;;;;5072238;28;20033;-80
2022/09/08 03:01:36;;;;;;;7.97;5.88;;;20.20;99.90;;;;;;5072336;28;20130;-82
2022/09/08 03:04:02;;;;;;;7.10;6.03;;;20.20;99.90;;;;;;5072320;28;20107;-81
2022/09/08 03:06:27;;;;;;;7.40;5.90;;;20.20;99.90;;;;;;5072440;28;20058;-80
2022/09/08 03:08:53;;;;;;;11.70;5.95;;;20.20;99.90;;;;;;5072130;28;20028;-81
2022/09/08 03:11:18;;;;;;;7.45;6.15;;;20.20;99.90;;;;;;5071985;28;20029;-81
2022/09/08 03:13:44;;;;;;;11.63;6.25;;;20.10;99.90;;;;;;5071952;28;20032;-81
2022/09/08 03:16:10;;;;;;;7.93;6.35;;;20.10;99.90;;;;;;5071321;28;20594;-80
2022/09/08 03:18:36;;;;;;;8.82;6.72;;;20.10;99.90;;;;;;5071976;28;20029;-82
2022/09/08 03:21:11;;;;;;;10.70;7.72;;;20.10;99.90;;;;;;5072190;28;20032;-81
2022/09/08 03:23:37;;;;;;;9.25;7.63;;;20.10;99.90;;;;;;5072323;28;20074;-82
2022/09/08 03:26:15;;;;;;;10.98;8.77;;;20.10;99.90;;;;;;5072182;28;20032;-82
2022/09/08 03:28:42;;;;;;;11.93;8.50;;;20.10;99.90;;;;;;5054133;28;20111;-82
2022/09/08 03:31:10;;;;;;;9.15;8.13;;;20.10;99.90;;;;;;5071438;28;20083;-82
2022/09/08 03:33:36;;;;;;;10.98;8.45;;;20.10;99.90;;;;;;5072018;28;20064;-82
2022/09/08 03:36:04;;;;;;;9.25;8.07;;;20.10;99.90;;;;;;5071938;28;20024;-82
2022/09/08 03:38:32;;;;;;;11.00;8.27;;;20.10;99.90;;;;;;5071967;28;20028;-82
2022/09/08 03:40:57;;;;;;;10.85;8.35;;;20.00;99.90;;;;;;5071856;28;20035;-82
2022/09/08 03:43:23;;;;;;;9.90;8.48;;;20.00;99.90;;;;;;5071690;28;20025;-82
2022/09/08 03:45:48;;;;;;;12.25;9.15;;;20.10;99.90;;;;;;5072360;28;20044;-82
2022/09/08 03:48:15;;;;;;;13.13;8.88;;;20.10;99.90;;;;;;5071830;28;20033;-82
2022/09/08 03:50:41;;;;;;;12.77;9.18;;;20.10;99.90;;;;;;5071970;28;20048;-82
2022/09/08 03:53:08;;;;;;;11.10;9.07;;;20.00;99.90;;;;;;5071813;28;20108;-82
2022/09/08 03:55:34;;;;;;;11.43;8.85;;;20.00;99.90;;;;;;5070855;28;20040;-82
2022/09/08 03:58:01;;;;;;;15.63;9.90;;;20.00;99.90;;;;;;5072146;28;20036;-83
2022/09/08 04:00:27;;;;;;;13.13;9.40;;;19.90;99.90;;;;;;5075375;28;20032;-83
2022/09/08 04:02:54;;;;;;;13.32;9.82;;;19.90;99.90;;;;;;5076427;28;20043;-83
2022/09/08 04:05:20;;;;;;;12.25;9.80;;;19.90;99.90;;;;;;5075833;28;20052;-83
2022/09/08 04:07:46;;;;;;;12.50;10.00;;;19.80;99.90;;;;;;5076421;28;20021;-83
2022/09/08 04:10:13;;;;;;;11.15;9.15;;;19.80;99.90;;;;;;5076019;28;20119;-83
2022/09/08 04:12:39;;;;;;;12.57;9.52;;;19.80;99.90;;;;;;5058235;28;20025;-83
2022/09/08 04:15:06;;;;;;;14.40;10.18;;;19.80;99.90;;;;;;5076115;28;20035;-83
2022/09/08 04:17:32;;;;;;;14.38;10.45;;;19.70;99.90;;;;;;5075432;28;20028;-83
2022/09/08 04:19:58;;;;;;;13.15;9.27;;;19.70;99.90;;;;;;5075930;28;20044;-83
2022/09/08 04:22:24;;;;;;;11.85;9.70;;;19.70;99.90;;;;;;5075419;28;20031;-82
2022/09/08 04:24:50;;;;;;;13.70;10.60;;;19.70;99.90;;;;;;5075573;28;20024;-82
2022/09/08 04:27:17;;;;;;;16.23;10.18;;;19.70;99.90;;;;;;5075695;28;20029;-83
2022/09/08 04:29:42;;;;;;;11.07;8.90;;;19.60;99.90;;;;;;5076247;28;20488;-81
2022/09/08 04:32:08;;;;;;;13.05;10.15;;;19.60;99.90;;;;;;5075758;28;20052;-77
2022/09/08 04:34:35;;;;;;;11.38;9.60;;;19.70;99.90;;;;;;5075178;28;20031;-81
2022/09/08 04:37:01;;;;;;;15.25;9.55;;;19.70;99.90;;;;;;5075451;28;20064;-81
2022/09/08 04:39:27;;;;;;;14.05;9.70;;;19.70;99.90;;;;;;5075199;28;20068;-83
2022/09/08 04:41:53;;;;;;;10.38;8.30;;;19.70;99.90;;;;;;5076077;28;20021;-82
2022/09/08 04:44:18;;;;;;;13.40;9.18;;;19.70;99.90;;;;;;5073257;28;20021;-82
2022/09/08 04:46:44;;;;;;;18.58;9.05;;;19.70;99.90;;;;;;5074690;28;20067;-81
2022/09/08 04:49:09;;;;;;;12.55;8.20;;;19.70;99.90;;;;;;5072984;28;20446;-79
2022/09/08 04:51:35;;;;;;;14.98;9.23;;;19.70;99.90;;;;;;5056387;28;20021;-82
2022/09/08 04:54:02;;;;;;;13.70;10.02;;;19.80;99.90;;;;;;5075464;28;20036;-82
2022/09/08 04:56:28;;;;;;;11.35;8.95;;;19.80;99.90;;;;;;5074667;28;20461;-83
2022/09/08 04:58:55;;;;;;;11.57;9.15;;;19.80;99.90;;;;;;5075407;28;20492;-82
2022/09/08 05:01:24;;;;;;;11.25;9.20;;;19.80;99.90;;;;;;5075299;28;20103;-82
2022/09/08 05:03:51;;;;;;;11.32;8.85;;;19.80;99.90;;;;;;5074954;28;20025;-82
2022/09/08 05:06:18;;;;;;;12.68;9.02;;;19.80;99.90;;;;;;5074803;28;20033;-81
2022/09/08 05:08:45;;;;;;;11.93;9.20;;;19.90;99.90;;;;;;5075225;28;20043;-81
2022/09/08 05:11:12;;;;;;;10.18;8.60;;;19.90;99.90;;;;;;5074000;28;20025;-79
2022/09/08 05:13:38;;;;;;;10.35;8.98;;;19.90;99.90;;;;;;5056856;28;20025;-81
2022/09/08 05:16:06;;;;;;;14.80;8.75;;;19.90;99.90;;;;;;5075173;28;20094;-80
2022/09/08 05:18:32;;;;;;;12.68;8.68;;;19.90;99.90;;;;;;5074989;28;20112;-80
2022/09/08 05:20:58;;;;;;;12.27;8.57;;;19.90;99.90;;;;;;5075573;28;20397;-81
2022/09/08 05:23:24;;;;;;;11.75;8.85;;;19.90;99.90;;;;;;5074829;28;20456;-81
2022/09/08 05:25:59;;;;;;;13.50;9.18;;;19.90;99.90;;;;;;5074119;28;20040;-82
2022/09/08 05:28:26;;;;;;;11.02;9.18;;;20.00;99.90;;;;;;5075283;28;20465;-82
2022/09/08 05:30:52;;;;;;;10.95;9.15;;;20.10;99.90;;;;;;5075376;28;20044;-82
2022/09/08 05:33:18;;;;;;;9.38;8.25;;;20.10;99.90;;;;;;5075155;28;20372;-82
2022/09/08 05:35:43;;;;;;;12.40;8.63;;;20.20;99.90;;;;;;5076660;28;20380;-82
2022/09/08 05:38:09;;;;;;;12.27;8.73;;;20.20;99.90;;;;;;5076972;28;20036;-82
2022/09/08 05:40:37;;;;;;;12.02;8.15;;;20.20;99.90;;;;;;5076103;28;20062;-83
2022/09/08 05:43:03;;;;;;;11.15;8.48;;;20.30;99.90;;;;;;5076153;28;20021;-83
2022/09/08 05:45:29;;;;;;;12.60;8.48;;;20.40;99.90;;;;;;5076613;28;20021;-82
2022/09/08 05:47:55;;;;;;;9.13;7.57;;;20.40;99.90;;;;;;5086776;28;20046;-80
2022/09/08 05:50:21;;;;;;;12.38;8.68;;;20.50;99.90;;;;;;5093512;28;20061;-82
2022/09/08 05:52:46;;;;;;;9.57;8.43;;;20.50;99.90;;;;;;5081110;28;20369;-83
2022/09/08 05:55:13;;;;;;;10.73;7.55;;;20.50;99.90;;;;;;5077373;28;20048;-81
2022/09/08 05:57:39;;;;;;;11.38;7.60;;;20.60;99.90;;;;;;5074237;28;20032;-81
2022/09/08 06:00:09;;;;;;;10.30;7.55;;;20.70;99.90;;;;;;5073555;28;20376;-81
2022/09/08 06:02:34;;;;;;;10.00;7.70;;;20.70;99.90;;;;;;5072190;28;20146;-81
2022/09/08 06:05:00;;;;;;;9.05;7.55;;;20.80;99.90;;;;;;5073178;28;20533;-82
2022/09/08 06:07:25;;;;;;;8.50;6.55;;;20.80;99.90;;;;;;5072897;28;20032;-80
2022/09/08 06:09:52;;;;;;;8.48;6.75;;;20.90;99.90;;;;;;5073067;28;20028;-82
2022/09/08 06:12:18;;;;;;;8.43;7.03;;;20.90;99.90;;;;;;5072258;28;20439;-79
2022/09/08 06:14:43;;;;;;;7.72;6.43;;;21.00;99.90;;;;;;5073214;28;20405;-81
2022/09/08 06:17:10;;;;;;;7.82;6.18;;;21.10;99.70;;;;;;5054835;28;20107;-82
2022/09/08 06:19:36;;;;;;;9.68;6.60;;;21.10;99.80;;;;;;5073045;28;20067;-82
2022/09/08 06:22:01;;;;;;;8.93;6.22;;;21.10;99.30;;;;;;5054150;28;20330;-83
2022/09/08 06:24:27;;;;;;;9.13;6.18;;;21.20;98.80;;;;;;5072194;28;20028;-82
2022/09/08 06:27:26;;;;;;;10.13;6.70;;;21.20;98.80;;;;;;5073138;28;20103;-82
2022/09/08 06:30:15;;;;;;;6.93;5.55;;;21.30;98.40;;;;;;5072750;28;20032;-83
2022/09/08 06:33:20;;;;;;;6.35;5.18;;;21.40;98.20;;;;;;5073037;28;20032;-84
2022/09/08 06:35:55;;;;;;;6.13;5.18;;;21.60;97.50;;;;;;5018123;28;20041;-83
2022/09/08 06:38:45;;;;;;;9.57;5.45;;;21.90;97.00;;;;;;5053503;28;20037;-83
2022/09/08 06:41:24;;;;;;;5.88;4.95;;;22.20;95.70;;;;;;5053936;28;20460;-83
2022/09/08 06:44:04;;;;;;;6.75;4.18;;;22.40;94.60;;;;;;5052978;28;20102;-83
2022/09/08 06:46:36;;;;;;;5.60;4.00;;;22.70;93.40;;;;;;5052846;28;20029;-83
2022/09/08 06:49:02;;;;;;;6.25;4.60;;;22.90;92.60;;;;;;5052725;28;20029;-83
2022/09/08 06:51:47;;;;;;;5.57;4.22;;;23.10;91.60;;;;;;5052293;28;20035;-81
2022/09/08 06:54:38;;;;;;;4.68;3.92;;;23.20;91.00;;;;;;5053751;28;20355;-83
2022/09/08 06:57:42;;;;;;;8.55;4.60;;;23.50;90.40;;;;;;5045956;28;20453;-83
2022/09/08 07:00:19;;;;;;;6.50;4.32;;;23.70;89.60;;;;;;4998452;28;20030;-83
2022/09/08 07:03:23;;;;;;;6.15;4.63;;;24.00;87.10;;;;;;5083580;28;20029;-83
2022/09/08 07:06:05;;;;;;;5.85;4.00;;;24.20;87.20;;;;;;5094925;28;20020;-81
2022/09/08 07:08:43;;;;;;;6.72;3.95;;;24.70;84.10;;;;;;5093618;28;20029;-83
2022/09/08 07:11:33;;;;;;;6.60;3.60;;;25.00;82.50;;;;;;5073513;28;20410;-83
2022/09/08 07:14:33;;;;;;;5.00;3.70;;;25.70;79.50;;;;;;5073449;28;20025;-84
2022/09/08 07:17:09;;;;;;;3.97;3.55;;;26.70;76.20;;;;;;5055400;28;20119;-83
2022/09/08 07:19:52;;;;;;;4.55;3.60;;;27.90;70.90;;;;;;5072637;28;20036;-83
2022/09/08 07:22:39;;;;;;;4.80;3.70;;;29.10;66.10;;;;;;5072862;28;20028;-83
2022/09/08 07:25:29;;;;;;;4.10;2.80;;;29.80;63.50;;;;;;5073278;28;20407;-84
2022/09/08 07:28:01;;;;;;;3.03;2.50;;;30.70;59.00;;;;;;5072437;28;20036;-83
2022/09/08 07:30:27;;;;;;;3.67;2.67;;;31.00;57.90;;;;;;5071691;28;20076;-83
2022/09/08 07:33:03;;;;;;;5.05;2.70;;;31.20;57.20;;;;;;5072116;28;20067;-82
2022/09/08 07:35:38;;;;;;;3.08;2.47;;;31.70;56.00;;;;;;5071513;28;20027;-81
2022/09/08 07:38:12;;;;;;;7.35;2.30;;;31.80;54.60;;;;;;5071831;28;20051;-83
2022/09/08 07:40:45;;;;;;;3.67;2.65;;;32.00;53.70;;;;;;5071596;28;20396;-83
2022/09/08 07:43:13;;;;;;;2.65;2.45;;;31.80;53.10;;;;;;5071925;28;20032;-82
2022/09/08 07:46:07;;;;;;;5.15;2.75;;;30.70;54.50;;;;;;5070722;28;20033;-83
2022/09/08 07:48:44;;;;;;;5.00;2.47;;;30.50;55.50;;;;;;5029769;28;20044;-82
2022/09/08 07:51:15;;;;;;;4.40;2.30;;;31.00;54.70;;;;;;5072553;28;20028;-83
2022/09/08 07:53:52;;;;;;;2.90;2.30;;;31.00;54.70;;;;;;5071596;28;20563;-83
2022/09/08 07:56:27;;;;;;;3.10;2.50;;;31.50;54.90;;;;;;5072108;28;20040;-83
2022/09/08 07:59:15;;;;;;;2.60;2.30;;;31.90;53.60;;;;;;5071882;28;20035;-82
2022/09/08 08:01:54;;;;;;;3.60;2.30;;;32.30;52.40;;;;;;5060604;28;20048;-84
2022/09/08 08:04:43;;;;;;;6.00;2.20;;;32.40;50.60;;;;;;5054249;28;20025;-83
2022/09/08 08:07:18;;;;;;;2.78;2.50;;;31.60;51.70;;;;;;5072773;28;20093;-83
2022/09/08 08:09:59;;;;;;;3.17;2.10;;;30.90;53.70;;;;;;5071920;28;20033;-82
2022/09/08 08:13:09;;;;;;;4.38;2.00;;;30.90;53.40;;;;;;5071107;28;20020;-82
2022/09/08 08:15:46;;;;;;;5.93;2.50;;;32.30;51.80;;;;;;4989458;28;20066;-84
2022/09/08 08:18:50;;;;;;;3.22;2.00;;;33.20;50.00;;;;;;5066706;28;20048;-82
2022/09/08 08:21:31;;;;;;;2.45;1.85;;;34.10;48.20;;;;;;5071869;28;20035;-83
2022/09/08 08:23:57;;;;;;;4.05;1.90;;;34.70;47.20;;;;;;5071719;28;20060;-82
2022/09/08 08:27:00;;;;;;;5.43;1.90;;;35.40;47.20;;;;;;5071874;28;20024;-83
2022/09/08 08:29:51;;;;;;;2.72;2.10;;;35.90;45.00;;;;;;5040784;28;20033;-81
2022/09/08 08:32:24;;;;;;;2.53;1.70;;;36.00;45.60;;;;;;5072548;28;20048;-83
2022/09/08 08:35:03;;;;;;;2.58;1.70;;;35.40;44.30;;;;;;5071504;28;20025;-83
2022/09/08 08:37:32;;;;;;;3.13;1.85;;;35.30;45.40;;;;;;5053725;28;20029;-83
2022/09/08 08:39:58;;;;;;;5.18;1.90;;;35.00;44.90;;;;;;5071273;28;20044;-83
2022/09/08 08:42:42;;;;;;;1.92;1.75;;;34.20;45.90;;;;;;5071548;28;20028;-82
2022/09/08 08:45:11;;;;;;;2.65;2.10;;;33.80;46.90;;;;;;5071614;28;20111;-81
2022/09/08 08:47:54;;;;;;;2.00;1.60;;;33.40;47.90;;;;;;5074920;28;20035;-83
2022/09/08 08:50:54;;;;;;;3.78;1.85;;;33.20;48.60;;;;;;5074970;28;20024;-83
2022/09/08 08:53:50;;;;;;;3.22;2.10;;;32.80;48.40;;;;;;5074905;28;20052;-82
2022/09/08 08:56:34;;;;;;;3.00;2.20;;;32.60;49.60;;;;;;5056868;28;20109;-83
2022/09/08 08:58:59;;;;;;;2.88;1.80;;;32.30;49.90;;;;;;5074986;28;20020;-82
2022/09/08 09:01:55;;;;;;;2.88;2.22;;;31.90;50.50;;;;;;5074504;28;20078;-82
2022/09/08 09:04:53;;;;;;;2.13;1.80;;;31.90;51.60;;;;;;5074832;28;20021;-81
2022/09/08 09:07:31;;;;;;;2.10;1.90;;;31.80;52.20;;;;;;5074705;28;20024;-81
2022/09/08 09:10:35;;;;;;;3.15;2.03;;;31.70;50.60;;;;;;5074261;28;20361;-82
2022/09/08 09:13:27;;;;;;;5.50;2.47;;;31.60;51.70;;;;;;5066827;28;20033;-82
2022/09/08 09:16:11;;;;;;;3.00;1.90;;;31.60;51.60;;;;;;5058295;28;20033;-82
2022/09/08 09:18:39;;;;;;;5.97;2.40;;;31.50;52.10;;;;;;5074622;28;20090;-82
2022/09/08 09:21:31;;;;;;;4.07;2.50;;;31.40;52.20;;;;;;5075182;28;20449;-82
2022/09/08 09:24:04;;;;;;;2.65;2.17;;;31.20;52.30;;;;;;5067155;28;20052;-84
2022/09/08 09:26:34;;;;;;;3.20;2.40;;;31.10;52.90;;;;;;5074511;28;20033;-80
2022/09/08 09:29:21;;;;;;;3.80;2.35;;;30.90;52.60;;;;;;5074962;28;20024;-82
2022/09/08 09:32:10;;;;;;;2.80;2.42;;;30.80;53.30;;;;;;5073911;28;20111;-84
2022/09/08 09:34:59;;;;;;;3.67;2.40;;;30.70;52.50;;;;;;5074446;28;20039;-84
2022/09/08 09:37:40;;;;;;;4.35;2.05;;;30.60;52.60;;;;;;5079745;28;20058;-83
2022/09/08 09:40:12;;;;;;;4.70;2.38;;;30.70;53.60;;;;;;5078867;28;20047;-82
2022/09/08 09:42:55;;;;;;;4.68;2.72;;;30.80;53.60;;;;;;5077624;28;20047;-82
2022/09/08 09:45:29;;;;;;;3.42;2.53;;;30.80;52.70;;;;;;5077181;28;20032;-83
2022/09/08 09:48:23;;;;;;;2.85;2.60;;;30.70;52.20;;;;;;5076148;28;20461;-83
2022/09/08 09:50:59;;;;;;;3.42;2.78;;;30.60;52.30;;;;;;5074360;28;20033;-82
2022/09/08 09:53:47;;;;;;;2.35;2.08;;;30.40;53.00;;;;;;5074300;28;20063;-83
2022/09/08 09:56:32;;;;;;;4.05;2.25;;;30.60;54.00;;;;;;5073983;28;20457;-84
2022/09/08 09:59:35;;;;;;;3.97;2.60;;;30.70;53.90;;;;;;5074029;28;20040;-82
2022/09/08 10:02:09;;;;;;;3.60;2.55;;;30.80;53.50;;;;;;5073876;28;20039;-83
2022/09/08 10:04:40;;;;;;;3.40;2.00;;;30.80;52.80;;;;;;5073258;28;20120;-82
2022/09/08 10:07:45;;;;;;;3.47;2.30;;;30.90;52.70;;;;;;5073514;28;20024;-80
2022/09/08 10:10:35;;;;;;;4.03;2.50;;;30.90;53.10;;;;;;5042807;28;20033;-81
2022/09/08 10:13:26;;;;;;;4.20;2.50;;;31.00;52.40;;;;;;5055712;28;20020;-76
2022/09/08 10:15:57;;;;;;;4.63;2.28;;;30.90;51.80;;;;;;5072939;28;20462;-76
2022/09/08 10:18:41;;;;;;;2.92;2.17;;;30.80;50.90;;;;;;5072615;28;20035;-77
2022/09/08 10:21:18;;;;;;;6.95;2.40;;;30.70;51.30;;;;;;5072865;28;20028;-79
2022/09/08 10:24:16;;;;;;;2.22;2.00;;;30.60;51.60;;;;;;5072067;28;20465;-79
2022/09/08 10:27:08;;;;;;;3.20;2.53;;;30.80;52.70;;;;;;5072315;28;20028;-75
2022/09/08 10:30:12;;;;;;;2.47;2.28;;;30.80;51.90;;;;;;5071146;28;20113;-79
2022/09/08 10:33:03;;;;;;;5.35;2.80;;;30.70;52.20;;;;;;5070251;28;20050;-81
2022/09/08 10:35:47;;;;;;;2.90;2.40;;;30.70;53.00;;;;;;5093019;28;20032;-81
2022/09/08 10:38:33;;;;;;;2.55;2.25;;;30.60;51.30;;;;;;5093416;28;20043;-81
2022/09/08 10:41:27;;;;;;;5.47;2.15;;;30.70;51.20;;;;;;5093170;28;20023;-80
2022/09/08 10:44:13;;;;;;;4.68;2.80;;;30.50;51.70;;;;;;5093071;28;20406;-80
2022/09/08 10:47:13;;;;;;;3.88;3.03;;;30.30;51.70;;;;;;5092372;28;20477;-79
2022/09/08 10:50:15;;;;;;;4.55;2.60;;;30.20;53.00;;;;;;5092264;28;20032;-82
2022/09/08 10:53:01;;;;;;;4.82;3.28;;;30.20;53.80;;;;;;5091654;28;20380;-77
2022/09/08 10:55:42;;;;;;;3.83;3.28;;;30.00;54.40;;;;;;5092494;28;20103;-78
2022/09/08 10:58:14;;;;;;;5.07;3.28;;;29.80;55.50;;;;;;5093110;28;20032;-76
2022/09/08 11:01:05;;;;;;;5.43;3.47;;;29.60;56.10;;;;;;5091451;28;20035;-76
2022/09/08 11:03:58;;;;;;;4.70;3.13;;;29.50;57.20;;;;;;5061281;28;20043;-65
2022/09/08 11:06:49;;;;;;;4.63;3.30;;;29.50;57.70;;;;;;5071926;28;20031;-66
2022/09/08 11:09:42;;;;;;;5.38;3.22;;;29.40;57.60;;;;;;5071583;28;20040;-66
2022/09/08 11:12:32;;;;;;;3.80;3.40;;;29.20;58.90;;;;;;5071871;28;20021;-67
2022/09/08 11:15:35;;;;;;;7.75;3.40;;;29.20;59.60;;;;;;5071494;28;20146;-71
2022/09/08 11:18:27;;;;;;;7.13;4.05;;;29.10;60.00;;;;;;5070716;28;20032;-71
2022/09/08 11:20:59;;;;;;;5.50;3.05;;;29.00;58.80;;;;;;5071139;28;20159;-72
2022/09/08 11:23:28;;;;;;;4.82;3.35;;;28.70;59.10;;;;;;5080993;28;20382;-72
2022/09/08 11:25:53;;;;;;;4.65;3.30;;;28.60;59.60;;;;;;5063118;28;20457;-72
2022/09/08 11:28:22;;;;;;;6.25;3.30;;;28.40;60.10;;;;;;5079508;28;20055;-72
2022/09/08 11:31:17;;;;;;;8.90;3.38;;;28.20;60.00;;;;;;5083896;28;20040;-71
2022/09/08 11:34:02;;;;;;;3.17;2.72;;;28.10;59.50;;;;;;5070196;28;20419;-73
2022/09/08 11:36:46;;;;;;;5.97;3.00;;;27.90;60.30;;;;;;5082369;28;20539;-66
2022/09/08 11:39:20;;;;;;;4.22;3.28;;;27.70;62.50;;;;;;5090779;28;20028;-71
2022/09/08 11:41:55;;;;;;;3.78;3.38;;;27.60;62.90;;;;;;5091216;28;20089;-70
2022/09/08 11:44:46;;;;;;;7.13;3.35;;;27.40;63.80;;;;;;5091822;28;20119;-70
2022/09/08 11:47:46;;;;;;;4.43;3.72;;;27.20;64.00;;;;;;5091601;28;20105;-71
2022/09/08 11:50:17;;;;;;;6.30;3.20;;;27.10;64.10;;;;;;5091525;28;20160;-70
2022/09/08 11:53:07;;;;;;;7.70;3.17;;;26.90;65.10;;;;;;5091044;28;20084;-69
2022/09/08 11:55:33;;;;;;;4.95;3.95;;;26.80;65.10;;;;;;5091456;28;20088;-69
2022/09/08 11:58:08;;;;;;;4.55;3.17;;;26.70;65.10;;;;;;5090778;28;20032;-69
2022/09/08 12:00:53;;;;;;;5.00;3.30;;;26.50;65.80;;;;;;5091399;28;20122;-69
2022/09/08 12:03:52;;;;;;;5.30;3.45;;;26.40;66.70;;;;;;5090993;28;20087;-69
2022/09/08 12:06:45;;;;;;;3.50;2.72;;;26.30;67.50;;;;;;5091228;28;20492;-71
2022/09/08 12:09:19;;;;;;;4.03;3.63;;;26.10;67.70;;;;;;5091375;28;20459;-70
2022/09/08 12:12:09;;;;;;;4.13;3.28;;;26.10;68.10;;;;;;5090588;28;20036;-68
2022/09/08 12:14:55;;;;;;;3.33;2.70;;;25.90;68.90;;;;;;5090942;28;20028;-69
2022/09/08 12:17:34;;;;;;;4.03;2.67;;;25.60;70.20;;;;;;5089917;28;20036;-69
2022/09/08 12:20:37;;;;;;;3.80;3.30;;;25.50;71.00;;;;;;5072816;28;20028;-69
2022/09/08 12:23:09;;;;;;;3.25;2.90;;;25.40;71.50;;;;;;5094662;28;20501;-69
2022/09/08 12:25:54;;;;;;;3.90;2.70;;;25.20;72.30;;;;;;5095189;28;20089;-70
2022/09/08 12:28:45;;;;;;;4.18;2.67;;;25.10;72.70;;;;;;5094473;28;20149;-70
2022/09/08 12:31:30;;;;;;;3.72;3.08;;;25.00;73.60;;;;;;5083463;28;20181;-70
2022/09/08 12:34:33;;;;;;;5.30;3.40;;;24.90;74.60;;;;;;5074145;28;20021;-69
2022/09/08 12:37:19;;;;;;;4.30;3.10;;;24.70;75.30;;;;;;5073828;28;20218;-69
2022/09/08 12:40:13;;;;;;;3.88;2.83;;;24.60;75.40;;;;;;5073155;28;20056;-71
2022/09/08 12:43:22;;;;;;;4.13;3.05;;;24.50;76.10;;;;;;5074386;28;20086;-70
2022/09/08 12:46:15;;;;;;;4.60;3.40;;;24.30;77.30;;;;;;5040128;28;20040;-69
2022/09/08 12:48:56;;;;;;;4.07;2.60;;;24.20;80.50;;;;;;5074593;28;20111;-70
2022/09/08 12:51:34;;;;;;;4.63;2.92;;;24.00;82.50;;;;;;5074179;28;20058;-70
2022/09/08 12:54:27;;;;;;;3.15;2.78;;;23.80;84.70;;;;;;5073872;28;20020;-70
2022/09/08 12:57:10;;;;;;;3.13;2.50;;;23.50;87.50;;;;;;5073739;28;20036;-70
2022/09/08 13:00:04;;;;;;;3.53;2.30;;;23.30;90.00;;;;;;5074395;28;20037;-70
2022/09/08 13:03:00;;;;;;;4.78;2.33;;;23.10;91.40;;;;;;5074395;28;20029;-70
2022/09/08 13:06:03;;;;;;;5.35;2.45;;;22.80;92.60;;;;;;5074503;28;20163;-70
2022/09/08 13:08:47;;;;;;;4.43;2.17;;;22.70;94.40;;;;;;5074233;28;20031;-69
2022/09/08 13:11:33;;;;;;;3.78;2.40;;;22.50;95.00;;;;;;5074340;28;20020;-68
2022/09/08 13:14:09;;;;;;;2.85;1.70;;;22.40;96.80;;;;;;5055652;28;20529;-68
2022/09/08 13:16:57;;;;;;;5.45;2.58;;;22.20;97.60;;;;;;5073797;28;20104;-69
2022/09/08 13:19:29;;;;;;;2.30;1.92;;;22.00;98.60;;;;;;5073959;28;20105;-69
2022/09/08 13:22:06;;;;;;;3.25;2.00;;;21.90;99.10;;;;;;5073576;28;20103;-69
2022/09/08 13:24:46;;;;;;;2.25;1.80;;;21.70;99.50;;;;;;5073511;28;20461;-69
2022/09/08 13:27:44;;;;;;;2.40;1.92;;;21.60;99.90;;;;;;5073780;28;20446;-70
2022/09/08 13:30:12;;;;;;;2.10;1.60;;;21.50;99.90;;;;;;5061051;28;20478;-70
2022/09/08 13:33:15;;;;;;;2.72;2.00;;;21.40;99.90;;;;;;5053228;28;20036;-69
2022/09/08 13:35:46;;;;;;;2.20;1.88;;;21.30;99.90;;;;;;5053529;28;20047;-68